createdAt,value
2016-03-22T00:00:31.798Z,0
2016-03-22T00:01:31.864Z,0
2016-03-22T00:02:31.944Z,0
2016-03-22T00:03:31.963Z,0
2016-03-22T00:04:31.997Z,0
2016-03-22T00:05:32.092Z,0
2016-03-22T00:06:32.112Z,0
2016-03-22T00:07:32.161Z,0
2016-03-22T00:08:32.257Z,0
2016-03-22T00:09:32.291Z,0
2016-03-22T00:10:32.341Z,0
2016-03-22T00:11:32.375Z,0
2016-03-22T00:12:32.409Z,0
2016-03-22T00:13:32.521Z,0
2016-03-22T00:14:32.523Z,0
2016-03-22T00:15:32.558Z,0
2016-03-22T00:16:32.654Z,0
2016-03-22T00:17:32.703Z,0
2016-03-22T00:18:32.738Z,0
2016-03-22T00:19:32.802Z,0
2016-03-22T00:20:32.868Z,0
2016-03-22T00:21:32.886Z,0
2016-03-22T00:22:32.951Z,0
2016-03-22T00:23:33.001Z,0
2016-03-22T00:24:33.066Z,0
2016-03-22T00:25:33.100Z,0
2016-03-22T00:26:33.149Z,0
2016-03-22T00:27:33.199Z,0
2016-03-22T00:28:33.264Z,0
2016-03-22T00:29:33.282Z,0
2016-03-22T00:30:33.363Z,0
2016-03-22T00:31:33.412Z,0
2016-03-22T00:32:33.461Z,0
2016-03-22T00:33:33.496Z,0
2016-03-22T00:34:33.561Z,0
2016-03-22T00:35:33.610Z,0
2016-03-22T00:36:33.660Z,0
2016-03-22T00:37:33.709Z,0
2016-03-22T00:38:33.744Z,0
2016-03-22T00:39:33.824Z,0
2016-03-22T00:40:33.827Z,0
2016-03-22T00:41:33.142Z,0
2016-03-22T00:42:33.973Z,0
2016-03-22T00:43:33.991Z,0
2016-03-22T00:44:34.040Z,0
2016-03-22T00:45:34.121Z,0
2016-03-22T00:46:34.156Z,0
2016-03-22T00:47:34.190Z,0
2016-03-22T00:48:34.114Z,0
2016-03-22T00:49:34.304Z,0
2016-03-22T00:50:34.370Z,0
2016-03-22T00:51:34.419Z,0
2016-03-22T00:52:34.468Z,0
2016-03-22T00:53:34.517Z,0
2016-03-22T00:54:34.568Z,0
2016-03-22T00:55:34.601Z,0
2016-03-22T00:56:34.667Z,0
2016-03-22T00:57:34.731Z,0
2016-03-22T00:58:34.750Z,0
2016-03-22T00:59:34.815Z,0
2016-03-22T01:00:34.865Z,0
2016-03-22T01:01:34.742Z,0
2016-03-22T01:02:34.979Z,0
2016-03-22T01:03:34.998Z,0
2016-03-22T01:04:35.063Z,0
2016-03-22T01:05:35.128Z,0
2016-03-22T01:06:35.178Z,0
2016-03-22T01:07:35.212Z,0
2016-03-22T01:08:35.277Z,0
2016-03-22T01:09:35.311Z,0
2016-03-22T01:10:35.345Z,0
2016-03-22T01:11:35.426Z,0
2016-03-22T01:12:35.444Z,0
2016-03-22T01:13:35.493Z,0
2016-03-22T01:14:35.575Z,0
2016-03-22T01:15:35.640Z,0
2016-03-22T01:16:35.674Z,0
2016-03-22T01:17:35.707Z,0
2016-03-22T01:18:35.804Z,0
2016-03-22T01:19:35.837Z,0
2016-03-22T01:20:35.856Z,0
2016-03-22T01:21:35.937Z,0
2016-03-22T01:22:35.986Z,0
2016-03-22T01:23:36.006Z,0
2016-03-22T01:24:36.054Z,0
2016-03-22T01:25:36.150Z,0
2016-03-22T01:26:36.170Z,0
2016-03-22T01:27:36.219Z,0
2016-03-22T01:28:36.347Z,0
2016-03-22T01:29:36.333Z,0
2016-03-22T01:30:36.367Z,0
2016-03-22T01:31:36.448Z,0
2016-03-22T01:32:36.483Z,0
2016-03-22T01:33:36.516Z,0
2016-03-22T01:34:36.566Z,0
2016-03-22T01:35:36.647Z,0
2016-03-22T01:36:36.665Z,0
2016-03-22T01:37:36.714Z,0
2016-03-22T01:38:36.795Z,0
2016-03-22T01:39:36.845Z,0
2016-03-22T01:40:36.894Z,0
2016-03-22T01:41:36.944Z,0
2016-03-22T01:42:36.993Z,0
2016-03-22T01:43:37.043Z,0
2016-03-22T01:44:37.062Z,0
2016-03-22T01:45:37.126Z,0
2016-03-22T01:46:37.192Z,0
2016-03-22T01:47:37.209Z,0
2016-03-22T01:48:37.276Z,0
2016-03-22T01:49:37.356Z,0
2016-03-22T01:50:37.374Z,0
2016-03-22T01:51:37.424Z,0
2016-03-22T01:52:37.489Z,0
2016-03-22T01:53:37.554Z,0
2016-03-22T01:54:37.589Z,0
2016-03-22T01:55:37.481Z,0
2016-03-22T01:56:37.687Z,0
2016-03-22T01:57:37.749Z,0
2016-03-22T01:58:37.769Z,0
2016-03-22T01:59:37.822Z,0
2016-03-22T02:00:37.857Z,0
2016-03-22T02:01:37.878Z,0
2016-03-22T02:02:37.917Z,0
2016-03-22T02:03:37.976Z,0
2016-03-22T02:04:38.037Z,0
2016-03-22T02:05:38.050Z,0
2016-03-22T02:06:38.125Z,0
2016-03-22T02:07:38.140Z,0
2016-03-22T02:08:38.204Z,0
2016-03-22T02:09:38.251Z,0
2016-03-22T02:10:38.284Z,0
2016-03-22T02:11:38.348Z,0
2016-03-22T02:12:38.396Z,0
2016-03-22T02:13:38.459Z,0
2016-03-22T02:14:38.477Z,0
2016-03-22T02:15:38.543Z,0
2016-03-22T02:16:38.590Z,0
2016-03-22T02:17:38.625Z,0
2016-03-22T02:18:38.721Z,0
2016-03-22T02:19:38.723Z,0
2016-03-22T02:20:38.789Z,0
2016-03-22T02:21:38.870Z,0
2016-03-22T02:22:38.888Z,0
2016-03-22T02:23:38.969Z,0
2016-03-22T02:24:39.019Z,0
2016-03-22T02:25:39.036Z,0
2016-03-22T02:26:39.086Z,0
2016-03-22T02:27:39.183Z,0
2016-03-22T02:28:39.216Z,0
2016-03-22T02:29:39.250Z,0
2016-03-22T02:30:39.321Z,0
2016-03-22T02:31:39.338Z,0
2016-03-22T02:32:39.279Z,0
2016-03-22T02:33:39.469Z,0
2016-03-22T02:34:39.487Z,0
2016-03-22T02:35:39.554Z,0
2016-03-22T02:36:39.634Z,0
2016-03-22T02:37:39.636Z,0
2016-03-22T02:38:39.686Z,0
2016-03-22T02:39:39.767Z,0
2016-03-22T02:40:39.784Z,0
2016-03-22T02:41:39.835Z,0
2016-03-22T02:42:39.962Z,0
2016-03-22T02:43:39.964Z,0
2016-03-22T02:44:40.015Z,0
2016-03-22T02:45:40.048Z,0
2016-03-22T02:46:40.082Z,0
2016-03-22T02:47:40.163Z,0
2016-03-22T02:48:40.228Z,0
2016-03-22T02:49:40.278Z,0
2016-03-22T02:50:40.328Z,0
2016-03-22T02:51:40.377Z,0
2016-03-22T02:52:40.395Z,0
2016-03-22T02:53:40.477Z,0
2016-03-22T02:54:40.525Z,0
2016-03-22T02:55:40.560Z,0
2016-03-22T02:56:40.625Z,0
2016-03-22T02:57:40.675Z,0
2016-03-22T02:58:40.724Z,0
2016-03-22T02:59:40.758Z,0
2016-03-22T03:00:40.807Z,0
2016-03-22T03:01:40.919Z,0
2016-03-22T03:02:40.922Z,0
2016-03-22T03:03:40.956Z,0
2016-03-22T03:04:41.037Z,0
2016-03-22T03:05:41.071Z,0
2016-03-22T03:06:41.121Z,0
2016-03-22T03:07:41.170Z,0
2016-03-22T03:08:41.235Z,0
2016-03-22T03:09:41.363Z,0
2016-03-22T03:10:41.303Z,0
2016-03-22T03:11:41.384Z,0
2016-03-22T03:12:41.434Z,0
2016-03-22T03:13:41.451Z,0
2016-03-22T03:14:41.533Z,0
2016-03-22T03:15:41.614Z,0
2016-03-22T03:16:41.616Z,0
2016-03-22T03:17:41.682Z,0
2016-03-22T03:18:41.762Z,0
2016-03-22T03:19:41.764Z,0
2016-03-22T03:20:41.846Z,0
2016-03-22T03:21:41.895Z,0
2016-03-22T03:22:41.929Z,0
2016-03-22T03:23:41.963Z,0
2016-03-22T03:24:41.856Z,0
2016-03-22T03:25:42.108Z,0
2016-03-22T03:26:42.112Z,0
2016-03-22T03:27:42.177Z,0
2016-03-22T03:28:42.257Z,0
2016-03-22T03:29:42.277Z,0
2016-03-22T03:30:42.341Z,0
2016-03-22T03:31:42.407Z,0
2016-03-22T03:32:42.456Z,0
2016-03-22T03:33:42.490Z,0
2016-03-22T03:34:42.540Z,0
2016-03-22T03:35:42.590Z,0
2016-03-22T03:36:42.670Z,0
2016-03-22T03:37:42.688Z,0
2016-03-22T03:38:42.754Z,0
2016-03-22T03:39:42.694Z,0
2016-03-22T03:40:42.853Z,0
2016-03-22T03:41:42.886Z,0
2016-03-22T03:42:42.952Z,0
2016-03-22T03:43:43.017Z,0
2016-03-22T03:44:43.004Z,0
2016-03-22T03:45:43.084Z,0
2016-03-22T03:46:43.165Z,0
2016-03-22T03:47:43.184Z,0
2016-03-22T03:48:43.281Z,0
2016-03-22T03:49:43.283Z,0
2016-03-22T03:50:43.332Z,0
2016-03-22T03:51:43.445Z,0
2016-03-22T03:52:43.431Z,0
2016-03-22T03:53:43.309Z,0
2016-03-22T03:54:43.594Z,0
2016-03-22T03:55:43.611Z,0
2016-03-22T03:56:43.630Z,0
2016-03-22T03:57:43.695Z,0
2016-03-22T03:58:43.776Z,0
2016-03-22T03:59:43.794Z,0
2016-03-22T04:00:43.860Z,0
2016-03-22T04:01:43.893Z,0
2016-03-22T04:02:43.958Z,0
2016-03-22T04:03:43.993Z,0
2016-03-22T04:04:44.042Z,0
2016-03-22T04:05:44.107Z,0
2016-03-22T04:06:44.141Z,0
2016-03-22T04:07:44.191Z,0
2016-03-22T04:08:44.271Z,0
2016-03-22T04:09:44.337Z,0
2016-03-22T04:10:44.370Z,0
2016-03-22T04:11:44.404Z,0
2016-03-22T04:12:44.470Z,0
2016-03-22T04:13:44.520Z,0
2016-03-22T04:14:44.584Z,0
2016-03-22T04:15:44.587Z,0
2016-03-22T04:16:44.668Z,0
2016-03-22T04:17:44.717Z,0
2016-03-22T04:18:44.736Z,0
2016-03-22T04:19:44.801Z,0
2016-03-22T04:20:44.866Z,0
2016-03-22T04:21:44.885Z,0
2016-03-22T04:22:44.950Z,0
2016-03-22T04:23:44.999Z,0
2016-03-22T04:24:45.065Z,0
2016-03-22T04:25:45.099Z,0
2016-03-22T04:26:45.180Z,0
2016-03-22T04:27:45.213Z,0
2016-03-22T04:28:45.263Z,0
2016-03-22T04:29:44.547Z,0
2016-03-22T04:30:45.347Z,0
2016-03-22T04:31:45.411Z,0
2016-03-22T04:32:45.460Z,0
2016-03-22T04:33:45.511Z,0
2016-03-22T04:34:45.576Z,0
2016-03-22T04:35:45.626Z,0
2016-03-22T04:36:45.659Z,0
2016-03-22T04:37:45.740Z,0
2016-03-22T04:38:45.790Z,0
2016-03-22T04:39:45.824Z,0
2016-03-22T04:40:45.843Z,0
2016-03-22T04:41:45.923Z,0
2016-03-22T04:42:45.987Z,0
2016-03-22T04:43:46.007Z,0
2016-03-22T04:44:46.056Z,0
2016-03-22T04:45:46.120Z,0
2016-03-22T04:46:46.140Z,0
2016-03-22T04:47:46.204Z,0
2016-03-22T04:48:46.317Z,0
2016-03-22T04:49:45.570Z,0
2016-03-22T04:50:45.603Z,0
2016-03-22T04:51:46.434Z,0
2016-03-22T04:52:46.484Z,0
2016-03-22T04:53:46.486Z,0
2016-03-22T04:54:46.583Z,0
2016-03-22T04:55:46.632Z,0
2016-03-22T04:56:46.683Z,0
2016-03-22T04:57:46.716Z,0
2016-03-22T04:58:46.797Z,0
2016-03-22T04:59:46.830Z,0
2016-03-22T05:00:46.864Z,0
2016-03-22T05:01:46.930Z,0
2016-03-22T05:02:46.979Z,0
2016-03-22T05:03:47.029Z,0
2016-03-22T05:04:47.078Z,0
2016-03-22T05:05:47.128Z,0
2016-03-22T05:06:47.193Z,0
2016-03-22T05:07:47.227Z,0
2016-03-22T05:08:47.246Z,0
2016-03-22T05:09:47.342Z,0
2016-03-22T05:10:47.407Z,0
2016-03-22T05:11:47.410Z,0
2016-03-22T05:12:47.521Z,0
2016-03-22T05:13:47.540Z,0
2016-03-22T05:14:47.574Z,0
2016-03-22T05:15:47.654Z,0
2016-03-22T05:16:47.690Z,0
2016-03-22T05:17:47.739Z,0
2016-03-22T05:18:47.788Z,0
2016-03-22T05:19:47.103Z,0
2016-03-22T05:20:47.887Z,0
2016-03-22T05:21:47.937Z,0
2016-03-22T05:22:47.970Z,0
2016-03-22T05:23:48.051Z,0
2016-03-22T05:24:48.100Z,0
2016-03-22T05:25:48.119Z,0
2016-03-22T05:26:48.231Z,0
2016-03-22T05:27:48.250Z,0
2016-03-22T05:28:48.269Z,0
2016-03-22T05:29:48.333Z,0
2016-03-22T05:30:48.383Z,0
2016-03-22T05:31:48.416Z,0
2016-03-22T05:32:48.497Z,0
2016-03-22T05:33:48.532Z,0
2016-03-22T05:34:48.565Z,0
2016-03-22T05:35:48.663Z,0
2016-03-22T05:36:48.680Z,0
2016-03-22T05:37:48.708Z,0
2016-03-22T05:38:48.790Z,0
2016-03-22T05:39:48.672Z,0
2016-03-22T05:40:48.788Z,0
2016-03-22T05:41:48.931Z,4
2016-03-22T05:42:48.997Z,0
2016-03-22T05:43:48.875Z,0
2016-03-22T05:44:49.064Z,0
2016-03-22T05:45:49.114Z,0
2016-03-22T05:46:49.180Z,0
2016-03-22T05:47:49.229Z,0
2016-03-22T05:48:49.263Z,0
2016-03-22T05:49:49.313Z,0
2016-03-22T05:50:49.377Z,0
2016-03-22T05:51:49.413Z,4
2016-03-22T05:52:49.477Z,4
2016-03-22T05:53:49.527Z,4
2016-03-22T05:54:49.545Z,4
2016-03-22T05:55:49.610Z,0
2016-03-22T05:56:49.676Z,0
2016-03-22T05:57:49.740Z,0
2016-03-22T05:58:49.760Z,0
2016-03-22T05:59:49.840Z,0
2016-03-22T06:00:49.905Z,0
2016-03-22T06:01:49.923Z,4
2016-03-22T06:02:49.973Z,0
2016-03-22T06:03:50.038Z,4
2016-03-22T06:04:50.087Z,4
2016-03-22T06:05:50.121Z,4
2016-03-22T06:06:50.187Z,4
2016-03-22T06:07:50.251Z,4
2016-03-22T06:08:50.270Z,4
2016-03-22T06:09:50.336Z,4
2016-03-22T06:10:50.385Z,4
2016-03-22T06:11:50.450Z,0
2016-03-22T06:12:50.514Z,0
2016-03-22T06:13:50.518Z,4
2016-03-22T06:14:50.599Z,4
2016-03-22T06:15:50.664Z,4
2016-03-22T06:16:50.682Z,8
2016-03-22T06:17:50.732Z,4
2016-03-22T06:18:50.640Z,4
2016-03-22T06:19:50.830Z,4
2016-03-22T06:20:50.881Z,4
2016-03-22T06:21:50.946Z,4
2016-03-22T06:22:50.980Z,4
2016-03-22T06:23:51.060Z,4
2016-03-22T06:24:51.079Z,4
2016-03-22T06:25:51.144Z,4
2016-03-22T06:26:51.193Z,8
2016-03-22T06:27:51.259Z,8
2016-03-22T06:28:51.120Z,4
2016-03-22T06:29:51.374Z,4
2016-03-22T06:30:51.423Z,4
2016-03-22T06:31:51.457Z,4
2016-03-22T06:32:51.491Z,4
2016-03-22T06:33:51.571Z,4
2016-03-22T06:34:50.824Z,8
2016-03-22T06:35:51.655Z,4
2016-03-22T06:36:51.737Z,4
2016-03-22T06:37:51.739Z,8
2016-03-22T06:38:51.804Z,8
2016-03-22T06:39:51.853Z,8
2016-03-22T06:40:51.872Z,8
2016-03-22T06:41:51.937Z,12
2016-03-22T06:42:52.002Z,12
2016-03-22T06:43:52.053Z,12
2016-03-22T06:44:52.086Z,16
2016-03-22T06:45:52.167Z,20
2016-03-22T06:46:52.216Z,16
2016-03-22T06:47:52.297Z,20
2016-03-22T06:48:52.315Z,20
2016-03-22T06:49:52.333Z,20
2016-03-22T06:50:52.413Z,20
2016-03-22T06:51:52.479Z,20
2016-03-22T06:52:52.497Z,16
2016-03-22T06:53:52.579Z,20
2016-03-22T06:54:52.613Z,24
2016-03-22T06:55:52.646Z,20
2016-03-22T06:56:52.712Z,20
2016-03-22T06:57:52.776Z,16
2016-03-22T06:58:52.780Z,12
2016-03-22T06:59:52.845Z,16
2016-03-22T07:00:52.894Z,12
2016-03-22T07:01:52.959Z,12
2016-03-22T07:02:53.024Z,16
2016-03-22T07:03:53.059Z,16
2016-03-22T07:04:53.108Z,16
2016-03-22T07:05:53.174Z,12
2016-03-22T07:06:53.239Z,16
2016-03-22T07:07:53.278Z,16
2016-03-22T07:08:53.327Z,16
2016-03-22T07:09:53.345Z,16
2016-03-22T07:10:53.395Z,20
2016-03-22T07:11:53.491Z,16
2016-03-22T07:12:53.510Z,20
2016-03-22T07:13:53.575Z,20
2016-03-22T07:14:53.453Z,20
2016-03-22T07:15:53.658Z,20
2016-03-22T07:16:53.755Z,20
2016-03-22T07:17:53.742Z,20
2016-03-22T07:18:53.869Z,20
2016-03-22T07:19:53.872Z,24
2016-03-22T07:20:53.905Z,24
2016-03-22T07:21:53.955Z,28
2016-03-22T07:22:54.036Z,28
2016-03-22T07:23:54.085Z,28
2016-03-22T07:24:54.135Z,24
2016-03-22T07:25:54.185Z,20
2016-03-22T07:26:54.203Z,20
2016-03-22T07:27:54.299Z,24
2016-03-22T07:28:54.365Z,20
2016-03-22T07:29:54.352Z,28
2016-03-22T07:30:54.432Z,32
2016-03-22T07:31:54.482Z,32
2016-03-22T07:32:54.501Z,28
2016-03-22T07:33:54.597Z,28
2016-03-22T07:34:54.631Z,24
2016-03-22T07:35:54.665Z,32
2016-03-22T07:36:54.731Z,28
2016-03-22T07:37:54.623Z,24
2016-03-22T07:38:54.845Z,24
2016-03-22T07:39:54.864Z,16
2016-03-22T07:40:54.913Z,20
2016-03-22T07:41:55.009Z,20
2016-03-22T07:42:55.011Z,20
2016-03-22T07:43:55.062Z,24
2016-03-22T07:44:55.189Z,20
2016-03-22T07:45:55.177Z,24
2016-03-22T07:46:55.226Z,20
2016-03-22T07:47:55.307Z,20
2016-03-22T07:48:55.356Z,24
2016-03-22T07:49:55.374Z,24
2016-03-22T07:50:55.441Z,24
2016-03-22T07:51:55.458Z,24
2016-03-22T07:52:55.538Z,20
2016-03-22T07:53:55.588Z,24
2016-03-22T07:54:55.669Z,28
2016-03-22T07:55:55.703Z,24
2016-03-22T07:56:55.752Z,24
2016-03-22T07:57:55.787Z,24
2016-03-22T07:58:55.852Z,24
2016-03-22T07:59:56.260Z,36
2016-03-22T08:00:55.795Z,40
2016-03-22T08:01:55.985Z,40
2016-03-22T08:02:56.034Z,52
2016-03-22T08:03:56.084Z,52
2016-03-22T08:04:56.134Z,56
2016-03-22T08:05:56.167Z,64
2016-03-22T08:06:56.249Z,52
2016-03-22T08:07:56.392Z,44
2016-03-22T08:08:56.332Z,56
2016-03-22T08:09:56.381Z,60
2016-03-22T08:10:56.447Z,92
2016-03-22T08:11:56.497Z,52
2016-03-22T08:12:56.530Z,48
2016-03-22T08:13:56.595Z,48
2016-03-22T08:14:56.645Z,48
2016-03-22T08:15:56.678Z,52
2016-03-22T08:16:56.760Z,56
2016-03-22T08:17:56.778Z,64
2016-03-22T08:18:56.828Z,72
2016-03-22T08:19:56.908Z,60
2016-03-22T08:20:56.958Z,68
2016-03-22T08:21:56.976Z,88
2016-03-22T08:22:57.058Z,168
2016-03-22T08:23:57.122Z,192
2016-03-22T08:24:57.125Z,168
2016-03-22T08:25:57.190Z,240
2016-03-22T08:26:57.255Z,348
2016-03-22T08:27:57.165Z,308
2016-03-22T08:28:57.339Z,368
2016-03-22T08:29:57.405Z,304
2016-03-22T08:30:57.454Z,248
2016-03-22T08:31:57.503Z,328
2016-03-22T08:32:57.537Z,320
2016-03-22T08:33:57.602Z,284
2016-03-22T08:34:57.651Z,448
2016-03-22T08:35:57.701Z,316
2016-03-22T08:36:57.734Z,260
2016-03-22T08:37:57.817Z,276
2016-03-22T08:38:57.865Z,260
2016-03-22T08:39:57.900Z,304
2016-03-22T08:40:57.981Z,340
2016-03-22T08:41:58.014Z,312
2016-03-22T08:42:58.033Z,228
2016-03-22T08:43:58.114Z,128
2016-03-22T08:44:58.148Z,112
2016-03-22T08:45:58.213Z,132
2016-03-22T08:46:58.277Z,152
2016-03-22T08:47:58.312Z,148
2016-03-22T08:48:58.361Z,88
2016-03-22T08:49:58.442Z,88
2016-03-22T08:50:58.445Z,100
2016-03-22T08:51:58.494Z,100
2016-03-22T08:52:58.575Z,92
2016-03-22T08:53:58.593Z,68
2016-03-22T08:54:58.644Z,80
2016-03-22T08:55:58.708Z,112
2016-03-22T08:56:58.788Z,112
2016-03-22T08:57:58.839Z,132
2016-03-22T08:58:58.857Z,128
2016-03-22T08:59:58.922Z,120
2016-03-22T09:00:58.988Z,148
2016-03-22T09:01:59.022Z,180
2016-03-22T09:02:59.071Z,196
2016-03-22T09:03:59.151Z,136
2016-03-22T09:04:59.154Z,148
2016-03-22T09:05:59.204Z,148
2016-03-22T09:06:59.314Z,136
2016-03-22T09:07:59.316Z,144
2016-03-22T09:08:59.397Z,96
2016-03-22T09:09:59.415Z,108
2016-03-22T09:10:59.480Z,148
2016-03-22T09:11:59.530Z,188
2016-03-22T09:12:59.548Z,196
2016-03-22T09:13:59.614Z,100
2016-03-22T09:14:59.694Z,76
2016-03-22T09:15:59.728Z,92
2016-03-22T09:16:59.761Z,116
2016-03-22T09:17:59.889Z,108
2016-03-22T09:18:59.876Z,72
2016-03-22T09:19:59.911Z,64
2016-03-22T09:21:00.007Z,64
2016-03-22T09:22:00.009Z,96
2016-03-22T09:23:00.074Z,80
2016-03-22T09:24:00.109Z,76
2016-03-22T09:25:00.190Z,128
2016-03-22T09:26:00.239Z,168
2016-03-22T09:27:00.289Z,120
2016-03-22T09:28:00.338Z,128
2016-03-22T09:29:00.387Z,84
2016-03-22T09:30:00.437Z,72
2016-03-22T09:31:00.471Z,76
2016-03-22T09:32:00.537Z,76
2016-03-22T09:33:00.601Z,68
2016-03-22T09:34:00.620Z,64
2016-03-22T09:35:00.732Z,72
2016-03-22T09:36:00.719Z,68
2016-03-22T09:37:00.801Z,76
2016-03-22T09:38:00.881Z,76
2016-03-22T09:39:00.867Z,76
2016-03-22T09:40:00.948Z,68
2016-03-22T09:41:01.014Z,60
2016-03-22T09:42:01.017Z,56
2016-03-22T09:43:01.097Z,60
2016-03-22T09:44:01.147Z,68
2016-03-22T09:45:01.196Z,76
2016-03-22T09:46:01.231Z,72
2016-03-22T09:47:01.296Z,60
2016-03-22T09:48:00.611Z,48
2016-03-22T09:49:01.394Z,48
2016-03-22T09:50:01.444Z,48
2016-03-22T09:51:01.510Z,44
2016-03-22T09:52:01.418Z,40
2016-03-22T09:53:01.577Z,32
2016-03-22T09:54:01.627Z,32
2016-03-22T09:55:01.692Z,36
2016-03-22T09:56:01.727Z,40
2016-03-22T09:57:01.776Z,44
2016-03-22T09:58:01.857Z,52
2016-03-22T09:59:01.890Z,60
2016-03-22T10:00:01.971Z,64
2016-03-22T10:01:02.005Z,60
2016-03-22T10:02:02.054Z,68
2016-03-22T10:03:02.089Z,80
2016-03-22T10:04:02.138Z,100
2016-03-22T10:05:02.219Z,112
2016-03-22T10:06:02.254Z,136
2016-03-22T10:07:02.287Z,128
2016-03-22T10:08:02.383Z,104
2016-03-22T10:09:02.402Z,88
2016-03-22T10:10:02.436Z,80
2016-03-22T10:11:02.517Z,72
2016-03-22T10:12:02.550Z,72
2016-03-22T10:13:02.647Z,72
2016-03-22T10:14:02.665Z,64
2016-03-22T10:15:02.731Z,52
2016-03-22T10:16:02.764Z,52
2016-03-22T10:17:02.783Z,52
2016-03-22T10:18:02.847Z,52
2016-03-22T10:19:02.163Z,52
2016-03-22T10:20:02.947Z,48
2016-03-22T10:21:03.012Z,60
2016-03-22T10:22:03.061Z,72
2016-03-22T10:23:03.111Z,76
2016-03-22T10:24:03.145Z,92
2016-03-22T10:25:03.210Z,80
2016-03-22T10:26:03.510Z,80
2016-03-22T10:27:03.325Z,88
2016-03-22T10:28:03.359Z,104
2016-03-22T10:29:03.409Z,104
2016-03-22T10:30:03.490Z,104
2016-03-22T10:31:03.523Z,80
2016-03-22T10:32:03.385Z,68
2016-03-22T10:33:03.654Z,76
2016-03-22T10:34:03.672Z,80
2016-03-22T10:35:03.721Z,72
2016-03-22T10:36:03.787Z,76
2016-03-22T10:37:03.821Z,80
2016-03-22T10:38:03.901Z,92
2016-03-22T10:39:03.936Z,88
2016-03-22T10:40:03.954Z,88
2016-03-22T10:41:04.081Z,72
2016-03-22T10:42:04.099Z,52
2016-03-22T10:43:03.352Z,36
2016-03-22T10:44:04.167Z,32
2016-03-22T10:45:04.233Z,36
2016-03-22T10:46:04.267Z,36
2016-03-22T10:47:04.347Z,32
2016-03-22T10:48:04.397Z,36
2016-03-22T10:49:04.431Z,32
2016-03-22T10:50:04.497Z,32
2016-03-22T10:51:04.530Z,32
2016-03-22T10:52:04.595Z,40
2016-03-22T10:53:04.660Z,36
2016-03-22T10:54:04.663Z,40
2016-03-22T10:55:04.744Z,44
2016-03-22T10:56:04.653Z,48
2016-03-22T10:57:04.812Z,52
2016-03-22T10:58:04.877Z,52
2016-03-22T10:59:04.942Z,48
2016-03-22T11:00:04.961Z,52
2016-03-22T11:01:05.010Z,56
2016-03-22T11:02:05.106Z,56
2016-03-22T11:03:05.157Z,56
2016-03-22T11:04:05.219Z,56
2016-03-22T11:05:05.216Z,56
2016-03-22T11:06:05.244Z,60
2016-03-22T11:07:05.349Z,56
2016-03-22T11:08:05.191Z,56
2016-03-22T11:09:05.406Z,60
2016-03-22T11:10:05.469Z,68
2016-03-22T11:11:05.517Z,68
2016-03-22T11:12:05.548Z,64
2016-03-22T11:13:05.627Z,64
2016-03-22T11:14:05.690Z,56
2016-03-22T11:15:05.708Z,56
2016-03-22T11:16:05.757Z,64
2016-03-22T11:17:05.633Z,64
2016-03-22T11:18:05.870Z,76
2016-03-22T11:19:05.904Z,76
2016-03-22T11:20:05.936Z,80
2016-03-22T11:21:06.016Z,84
2016-03-22T11:22:06.082Z,84
2016-03-22T11:23:06.099Z,92
2016-03-22T11:24:06.149Z,100
2016-03-22T11:25:06.199Z,104
2016-03-22T11:26:06.264Z,116
2016-03-22T11:27:06.298Z,128
2016-03-22T11:28:06.379Z,124
2016-03-22T11:29:06.381Z,100
2016-03-22T11:30:06.446Z,96
2016-03-22T11:31:06.495Z,116
2016-03-22T11:32:06.577Z,120
2016-03-22T11:33:06.626Z,104
2016-03-22T11:34:06.645Z,88
2016-03-22T11:35:06.725Z,80
2016-03-22T11:36:06.791Z,80
2016-03-22T11:37:06.809Z,76
2016-03-22T11:38:06.859Z,52
2016-03-22T11:39:06.939Z,48
2016-03-22T11:40:06.941Z,48
2016-03-22T11:41:07.008Z,52
2016-03-22T11:42:06.900Z,48
2016-03-22T11:43:07.138Z,52
2016-03-22T11:44:07.156Z,56
2016-03-22T11:45:07.236Z,64
2016-03-22T11:46:07.286Z,68
2016-03-22T11:47:07.305Z,72
2016-03-22T11:48:07.385Z,72
2016-03-22T11:49:07.419Z,84
2016-03-22T11:50:07.453Z,96
2016-03-22T11:51:07.503Z,108
2016-03-22T11:52:07.584Z,120
2016-03-22T11:53:07.633Z,124
2016-03-22T11:54:07.682Z,120
2016-03-22T11:55:07.748Z,116
2016-03-22T11:56:07.782Z,108
2016-03-22T11:57:07.848Z,104
2016-03-22T11:58:07.850Z,104
2016-03-22T11:59:07.962Z,100
2016-03-22T12:00:07.996Z,100
2016-03-22T12:01:08.014Z,100
2016-03-22T12:02:08.064Z,96
2016-03-22T12:03:08.129Z,88
2016-03-22T12:04:08.178Z,84
2016-03-22T12:05:08.212Z,84
2016-03-22T12:06:08.309Z,80
2016-03-22T12:07:08.311Z,72
2016-03-22T12:08:08.377Z,68
2016-03-22T12:09:08.425Z,72
2016-03-22T12:10:07.726Z,64
2016-03-22T12:11:08.541Z,60
2016-03-22T12:12:08.559Z,60
2016-03-22T12:13:08.641Z,68
2016-03-22T12:14:08.689Z,64
2016-03-22T12:15:08.739Z,68
2016-03-22T12:16:08.789Z,68
2016-03-22T12:17:08.869Z,68
2016-03-22T12:18:08.888Z,60
2016-03-22T12:19:08.921Z,64
2016-03-22T12:20:09.003Z,64
2016-03-22T12:21:09.021Z,60
2016-03-22T12:22:09.086Z,56
2016-03-22T12:23:09.152Z,52
2016-03-22T12:24:09.170Z,48
2016-03-22T12:25:09.266Z,48
2016-03-22T12:26:09.301Z,44
2016-03-22T12:27:09.318Z,44
2016-03-22T12:28:09.414Z,48
2016-03-22T12:29:09.448Z,48
2016-03-22T12:30:09.498Z,48
2016-03-22T12:31:09.532Z,52
2016-03-22T12:32:09.629Z,48
2016-03-22T12:33:09.631Z,44
2016-03-22T12:34:09.697Z,44
2016-03-22T12:35:09.745Z,48
2016-03-22T12:36:09.812Z,44
2016-03-22T12:37:09.845Z,52
2016-03-22T12:38:09.894Z,48
2016-03-22T12:39:09.929Z,52
2016-03-22T12:40:10.025Z,52
2016-03-22T12:41:10.028Z,52
2016-03-22T12:42:10.094Z,48
2016-03-22T12:43:10.158Z,48
2016-03-22T12:44:10.208Z,48
2016-03-22T12:45:10.241Z,48
2016-03-22T12:46:10.323Z,44
2016-03-22T12:47:10.372Z,48
2016-03-22T12:48:10.422Z,48
2016-03-22T12:49:10.472Z,48
2016-03-22T12:50:10.505Z,48
2016-03-22T12:51:10.555Z,44
2016-03-22T12:52:10.605Z,48
2016-03-22T12:53:10.670Z,44
2016-03-22T12:54:10.719Z,44
2016-03-22T12:55:10.753Z,48
2016-03-22T12:56:10.819Z,44
2016-03-22T12:57:10.868Z,40
2016-03-22T12:58:10.918Z,40
2016-03-22T12:59:10.967Z,36
2016-03-22T13:00:11.001Z,36
2016-03-22T13:01:11.065Z,36
2016-03-22T13:02:11.115Z,36
2016-03-22T13:03:11.150Z,40
2016-03-22T13:04:11.215Z,40
2016-03-22T13:05:11.280Z,40
2016-03-22T13:06:11.329Z,44
2016-03-22T13:07:11.353Z,52
2016-03-22T13:08:11.449Z,48
2016-03-22T13:09:11.484Z,48
2016-03-22T13:10:11.502Z,52
2016-03-22T13:11:11.583Z,56
2016-03-22T13:12:11.616Z,64
2016-03-22T13:13:11.681Z,60
2016-03-22T13:14:11.731Z,60
2016-03-22T13:15:11.765Z,56
2016-03-22T13:16:11.830Z,60
2016-03-22T13:17:11.880Z,60
2016-03-22T13:18:11.913Z,60
2016-03-22T13:19:11.963Z,60
2016-03-22T13:20:12.044Z,56
2016-03-22T13:21:12.062Z,56
2016-03-22T13:22:12.127Z,56
2016-03-22T13:23:12.177Z,56
2016-03-22T13:24:12.242Z,52
2016-03-22T13:25:12.276Z,52
2016-03-22T13:26:12.340Z,52
2016-03-22T13:27:12.376Z,48
2016-03-22T13:28:12.440Z,44
2016-03-22T13:29:12.506Z,44
2016-03-22T13:30:12.524Z,40
2016-03-22T13:31:12.589Z,40
2016-03-22T13:32:12.639Z,44
2016-03-22T13:33:12.720Z,40
2016-03-22T13:34:12.722Z,40
2016-03-22T13:35:12.787Z,40
2016-03-22T13:36:12.852Z,40
2016-03-22T13:40:33.413Z,36
2016-03-22T13:41:02.163Z,36
2016-03-22T13:42:02.228Z,36
2016-03-22T13:43:02.262Z,40
2016-03-22T13:44:02.344Z,36
2016-03-22T13:45:02.361Z,40
2016-03-22T13:46:02.457Z,40
2016-03-22T13:47:02.444Z,40
2016-03-22T13:48:02.541Z,40
2016-03-22T13:49:02.575Z,40
2016-03-22T13:50:02.641Z,36
2016-03-22T13:51:02.658Z,40
2016-03-22T13:52:02.754Z,40
2016-03-22T13:53:02.774Z,36
2016-03-22T13:54:02.854Z,40
2016-03-22T13:55:02.857Z,36
2016-03-22T13:56:02.921Z,36
2016-03-22T13:57:03.003Z,36
2016-03-22T13:58:03.037Z,32
2016-03-22T13:59:03.101Z,28
2016-03-22T14:00:03.137Z,28
2016-03-22T14:01:03.201Z,24
2016-03-22T14:02:03.220Z,28
2016-03-22T14:03:03.315Z,24
2016-03-22T14:04:03.334Z,20
2016-03-22T14:05:03.400Z,24
2016-03-22T14:06:03.417Z,24
2016-03-22T14:07:03.467Z,24
2016-03-22T14:08:03.548Z,24
2016-03-22T14:09:03.597Z,28
2016-03-22T14:10:03.632Z,24
2016-03-22T14:11:03.697Z,28
2016-03-22T14:12:03.731Z,24
2016-03-22T14:13:03.780Z,28
2016-03-22T14:14:03.861Z,32
2016-03-22T14:15:03.927Z,28
2016-03-22T14:16:03.944Z,28
2016-03-22T14:17:04.010Z,28
2016-03-22T14:18:04.060Z,28
2016-03-22T14:19:04.109Z,32
2016-03-22T14:20:04.174Z,32
2016-03-22T14:21:04.177Z,32
2016-03-22T14:22:04.273Z,36
2016-03-22T14:23:04.308Z,40
2016-03-22T14:24:04.372Z,48
2016-03-22T14:25:04.390Z,56
2016-03-22T14:26:04.456Z,56
2016-03-22T14:27:04.474Z,52
2016-03-22T14:28:04.540Z,56
2016-03-22T14:29:04.620Z,56
2016-03-22T14:30:04.654Z,64
2016-03-22T14:31:04.703Z,56